createdAt,value
2019-03-06T00:00:52.812Z,86.26
2019-03-06T00:03:01.814Z,86.43
2019-03-06T00:05:09.628Z,86.29
2019-03-06T00:07:17.823Z,86.21
2019-03-06T00:09:26.447Z,86.45
2019-03-06T00:11:34.235Z,86.53
2019-03-06T00:13:42.201Z,86.59
2019-03-06T00:15:50.331Z,86.68
2019-03-06T00:17:57.596Z,86.60
2019-03-06T00:20:06.922Z,86.69
2019-03-06T00:22:14.284Z,86.86
2019-03-06T00:24:21.279Z,87.17
2019-03-06T00:26:28.461Z,87.46
2019-03-06T00:28:36.347Z,87.72
2019-03-06T00:30:43.474Z,87.88
2019-03-06T00:32:50.548Z,88.03
2019-03-06T00:34:59.045Z,88.13
2019-03-06T00:37:06.657Z,88.14
2019-03-06T00:39:13.868Z,88.19
2019-03-06T00:41:22.709Z,88.06
2019-03-06T00:43:29.340Z,88.02
2019-03-06T00:45:37.531Z,87.93
2019-03-06T00:47:44.649Z,87.79
2019-03-06T00:49:51.891Z,87.95
2019-03-06T00:51:58.760Z,88.16
2019-03-06T00:54:05.820Z,88.17
2019-03-06T00:56:12.878Z,88.07
2019-03-06T00:58:19.994Z,88.04
2019-03-06T01:00:27.638Z,88.07
2019-03-06T01:02:34.698Z,87.98
2019-03-06T01:04:41.436Z,87.73
2019-03-06T01:06:48.922Z,87.47
2019-03-06T01:08:56.277Z,87.45
2019-03-06T01:11:03.189Z,87.37
2019-03-06T01:13:10.436Z,87.26
2019-03-06T01:15:22.008Z,86.70
2019-03-06T01:17:29.460Z,86.46
2019-03-06T01:19:36.231Z,86.49
2019-03-06T01:21:42.980Z,86.36
2019-03-06T01:23:50.395Z,86.22
2019-03-06T01:25:57.552Z,85.95
2019-03-06T01:28:05.092Z,85.67
2019-03-06T01:30:23.102Z,85.70
2019-03-06T01:32:30.061Z,85.65
2019-03-06T01:34:48.108Z,85.71
2019-03-06T01:37:08.774Z,85.71
2019-03-06T01:39:24.853Z,85.35
2019-03-06T01:41:36.282Z,84.97
2019-03-06T01:43:44.789Z,85.16
2019-03-06T01:45:51.717Z,85.16
2019-03-06T01:47:58.776Z,84.89
2019-03-06T01:50:10.155Z,84.81
2019-03-06T01:52:17.174Z,84.77
2019-03-06T01:54:24.939Z,85.09
2019-03-06T01:56:32.486Z,84.83
2019-03-06T01:58:40.045Z,84.29
2019-03-06T02:00:47.043Z,84.93
2019-03-06T02:02:54.348Z,84.26
2019-03-06T02:05:01.451Z,84.25
2019-03-06T02:07:11.518Z,83.83
2019-03-06T02:09:21.732Z,83.90
2019-03-06T02:11:28.846Z,83.81
2019-03-06T02:13:35.655Z,83.87
2019-03-06T02:15:42.916Z,83.81
2019-03-06T02:17:50.203Z,83.46
2019-03-06T02:19:58.189Z,83.69
2019-03-06T02:22:04.913Z,83.60
2019-03-06T02:24:11.833Z,83.34
2019-03-06T02:26:19.037Z,83.40
2019-03-06T02:28:26.196Z,83.49
2019-03-06T02:30:33.179Z,83.59
2019-03-06T02:32:39.983Z,82.83
2019-03-06T02:34:47.464Z,82.58
2019-03-06T02:36:55.519Z,82.45
2019-03-06T02:39:02.351Z,82.45
2019-03-06T02:41:11.055Z,82.06
2019-03-06T02:43:18.553Z,82.77
2019-03-06T02:45:25.688Z,81.87
2019-03-06T02:47:32.935Z,82.87
2019-03-06T02:49:39.612Z,82.07
2019-03-06T02:51:47.404Z,82.01
2019-03-06T02:53:54.317Z,81.86
2019-03-06T02:56:01.529Z,81.73
2019-03-06T02:58:19.444Z,81.74
2019-03-06T03:00:35.155Z,81.73
2019-03-06T03:02:47.185Z,81.55
2019-03-06T03:04:56.121Z,81.55
2019-03-06T03:07:04.672Z,81.81
2019-03-06T03:09:20.739Z,81.91
2019-03-06T03:11:27.809Z,81.54
2019-03-06T03:13:35.113Z,81.57
2019-03-06T03:15:42.047Z,81.49
2019-03-06T03:17:48.904Z,81.25
2019-03-06T03:19:56.200Z,80.99
2019-03-06T03:22:03.085Z,80.93
2019-03-06T03:24:10.592Z,81.27
2019-03-06T03:26:17.498Z,81.79
2019-03-06T03:28:24.432Z,82.37
2019-03-06T03:30:32.799Z,82.46
2019-03-06T03:32:39.617Z,82.64
2019-03-06T03:34:47.205Z,82.48
2019-03-06T03:36:54.314Z,82.61
2019-03-06T03:39:01.363Z,82.89
2019-03-06T03:41:09.523Z,82.83
2019-03-06T03:43:16.789Z,83.14
2019-03-06T03:45:24.514Z,82.99
2019-03-06T03:47:32.724Z,83.25
2019-03-06T03:49:42.537Z,83.43
2019-03-06T03:51:49.136Z,83.51
2019-03-06T03:53:56.302Z,83.53
2019-03-06T03:56:04.128Z,83.46
2019-03-06T03:58:11.107Z,83.27
2019-03-06T04:00:23.393Z,83.81
2019-03-06T04:02:30.584Z,83.18
2019-03-06T04:04:38.643Z,82.95
2019-03-06T04:06:45.917Z,82.88
2019-03-06T04:08:53.464Z,82.64
2019-03-06T04:11:01.223Z,82.57
2019-03-06T04:13:08.768Z,82.73
2019-03-06T04:15:17.789Z,82.74
2019-03-06T04:17:24.536Z,82.84
2019-03-06T04:19:31.595Z,83.07
2019-03-06T04:21:38.633Z,83.08
2019-03-06T04:23:46.345Z,83.22
2019-03-06T04:25:53.427Z,83.50
2019-03-06T04:28:00.540Z,83.41
2019-03-06T04:30:15.975Z,83.02
2019-03-06T04:32:22.740Z,83.07
2019-03-06T04:34:29.678Z,82.92
2019-03-06T04:36:36.577Z,83.07
2019-03-06T04:38:43.940Z,83.37
2019-03-06T04:40:51.111Z,84.19
2019-03-06T04:42:57.809Z,84.41
2019-03-06T04:45:06.037Z,84.35
2019-03-06T04:47:13.235Z,84.05
2019-03-06T04:49:20.288Z,84.22
2019-03-06T04:51:27.487Z,84.76
2019-03-06T04:53:36.128Z,84.22
2019-03-06T04:55:44.722Z,84.62
2019-03-06T04:57:52.051Z,84.54
2019-03-06T04:59:59.577Z,84.60
2019-03-06T05:02:08.556Z,83.39
2019-03-06T05:04:15.381Z,82.95
2019-03-06T05:06:21.901Z,83.35
2019-03-06T05:08:28.783Z,83.89
2019-03-06T05:10:35.852Z,83.65
2019-03-06T05:12:43.623Z,83.79
2019-03-06T05:14:50.558Z,84.00
2019-03-06T05:17:02.183Z,84.41
2019-03-06T05:19:11.266Z,83.73
2019-03-06T05:21:18.416Z,83.21
2019-03-06T05:23:25.399Z,84.51
2019-03-06T05:25:32.662Z,83.70
2019-03-06T05:27:39.786Z,83.15
2019-03-06T05:29:46.681Z,83.26
2019-03-06T05:32:26.625Z,85.08
2019-03-06T05:34:33.916Z,82.87
2019-03-06T05:37:21.697Z,81.98
2019-03-06T05:39:28.780Z,83.28
2019-03-06T05:41:36.231Z,83.00
2019-03-06T05:43:43.702Z,84.26
2019-03-06T05:45:50.802Z,83.87
2019-03-06T05:47:58.235Z,81.68
2019-03-06T05:50:06.988Z,82.88
2019-03-06T05:52:13.865Z,83.69
2019-03-06T05:54:21.429Z,81.16
2019-03-06T05:56:28.371Z,83.76
2019-03-06T05:58:35.683Z,82.25
2019-03-06T06:00:42.483Z,82.77
2019-03-06T06:02:49.366Z,82.94
2019-03-06T06:04:55.882Z,82.20
2019-03-06T06:07:02.927Z,82.22
2019-03-06T06:09:11.145Z,81.79
2019-03-06T06:11:18.899Z,80.86
2019-03-06T06:13:26.076Z,81.10
2019-03-06T06:15:32.905Z,81.52
2019-03-06T06:17:39.766Z,81.92
2019-03-06T06:19:46.489Z,82.26
2019-03-06T06:21:54.774Z,82.65
2019-03-06T06:24:03.926Z,80.92
2019-03-06T06:26:11.025Z,82.11
2019-03-06T06:28:19.415Z,81.99
2019-03-06T06:30:26.423Z,81.18
2019-03-06T06:32:33.476Z,81.29
2019-03-06T06:34:40.306Z,81.14
2019-03-06T06:36:47.505Z,81.78
2019-03-06T06:38:53.986Z,80.50
2019-03-06T06:41:01.351Z,81.94
2019-03-06T06:43:08.905Z,78.11
2019-03-06T06:45:19.113Z,78.02
2019-03-06T06:47:26.566Z,79.16
2019-03-06T06:49:33.436Z,79.25
2019-03-06T06:51:59.977Z,79.64
2019-03-06T06:54:29.049Z,80.13
2019-03-06T06:56:56.853Z,80.66
2019-03-06T06:59:16.625Z,80.48
2019-03-06T07:01:33.441Z,80.46
2019-03-06T07:04:32.813Z,80.83
2019-03-06T07:06:58.653Z,80.68
2019-03-06T07:09:07.166Z,81.16
2019-03-06T07:11:15.813Z,80.82
2019-03-06T07:13:30.216Z,80.17
2019-03-06T07:15:54.116Z,80.12
2019-03-06T07:18:12.896Z,79.78
2019-03-06T07:20:23.559Z,80.21
2019-03-06T07:22:35.215Z,80.39
2019-03-06T07:24:52.396Z,79.94
2019-03-06T07:27:08.396Z,80.61
2019-03-06T07:29:22.036Z,80.59
2019-03-06T07:31:40.904Z,80.56
2019-03-06T07:33:51.995Z,79.92
2019-03-06T07:36:06.463Z,80.35
2019-03-06T07:38:13.345Z,80.68
2019-03-06T07:40:23.076Z,80.35
2019-03-06T07:42:38.739Z,79.92
2019-03-06T07:45:28.406Z,79.86
2019-03-06T07:47:38.269Z,79.82
2019-03-06T07:49:48.226Z,79.64
2019-03-06T07:52:05.925Z,80.08
2019-03-06T07:54:28.163Z,79.17
2019-03-06T07:56:48.755Z,79.09
2019-03-06T07:58:57.533Z,78.83
2019-03-06T08:01:04.635Z,79.14
2019-03-06T08:03:11.878Z,79.23
2019-03-06T08:05:18.846Z,78.62
2019-03-06T08:07:25.776Z,78.66
2019-03-06T08:09:33.981Z,78.65
2019-03-06T08:11:42.795Z,78.20
2019-03-06T08:13:51.586Z,78.73
2019-03-06T08:16:03.195Z,77.20
2019-03-06T08:18:20.224Z,76.80
2019-03-06T08:20:27.263Z,77.23
2019-03-06T08:22:37.696Z,77.04
2019-03-06T08:24:46.523Z,76.55
2019-03-06T08:26:53.474Z,76.52
2019-03-06T08:29:00.767Z,77.05
2019-03-06T08:31:16.127Z,76.39
2019-03-06T08:33:22.946Z,75.82
2019-03-06T08:35:30.282Z,75.72
2019-03-06T08:37:37.976Z,75.90
2019-03-06T08:39:44.707Z,74.76
2019-03-06T08:41:52.064Z,75.05
2019-03-06T08:43:58.967Z,74.88
2019-03-06T08:46:17.866Z,74.18
2019-03-06T08:48:41.746Z,74.87
2019-03-06T08:51:05.443Z,74.44
2019-03-06T08:53:30.644Z,74.72
2019-03-06T08:55:39.306Z,74.52
2019-03-06T08:58:03.140Z,74.09
2019-03-06T09:00:20.016Z,74.11
2019-03-06T09:02:33.346Z,74.57
2019-03-06T09:04:58.353Z,73.74
2019-03-06T09:07:06.763Z,74.17
2019-03-06T09:09:26.556Z,74.29
2019-03-06T09:11:36.704Z,74.30
2019-03-06T09:14:03.857Z,73.06
2019-03-06T09:16:21.494Z,72.78
2019-03-06T09:18:46.487Z,72.13
2019-03-06T09:20:59.583Z,71.42
2019-03-06T09:23:24.455Z,70.08
2019-03-06T09:25:36.292Z,69.48
2019-03-06T09:27:46.337Z,69.73
2019-03-06T09:30:15.948Z,69.19
2019-03-06T09:32:21.874Z,68.54
2019-03-06T09:34:33.686Z,68.06
2019-03-06T09:36:52.326Z,67.22
2019-03-06T09:39:16.206Z,66.71
2019-03-06T09:41:24.464Z,67.31
2019-03-06T09:43:42.254Z,66.27
2019-03-06T09:46:08.476Z,64.44
2019-03-06T09:48:34.288Z,64.77
2019-03-06T09:50:46.296Z,64.83
2019-03-06T09:53:00.593Z,65.24
2019-03-06T09:55:12.116Z,65.46
2019-03-06T09:57:20.836Z,65.04
2019-03-06T09:59:30.256Z,67.14
2019-03-06T10:01:55.389Z,66.96
2019-03-06T10:04:10.033Z,63.91
2019-03-06T10:06:34.893Z,66.68
2019-03-06T10:08:46.301Z,64.82
2019-03-06T10:11:00.538Z,66.49
2019-03-06T10:13:11.817Z,64.33
2019-03-06T10:15:26.448Z,63.66
2019-03-06T10:17:41.897Z,61.33
2019-03-06T10:19:50.348Z,61.11
2019-03-06T10:21:59.141Z,60.83
2019-03-06T10:24:26.867Z,60.96
2019-03-06T10:26:34.088Z,62.02
2019-03-06T10:28:41.067Z,63.28
2019-03-06T10:30:48.310Z,63.70
2019-03-06T10:32:55.308Z,64.19
2019-03-06T10:35:03.649Z,65.22
2019-03-06T10:37:12.348Z,63.46
2019-03-06T10:39:19.268Z,65.70
2019-03-06T10:41:26.168Z,64.58
2019-03-06T10:43:34.238Z,64.26
2019-03-06T10:45:41.795Z,64.28
2019-03-06T10:47:49.195Z,62.75
2019-03-06T10:49:56.351Z,63.94
2019-03-06T10:52:03.628Z,61.65
2019-03-06T10:54:10.768Z,61.81
2019-03-06T10:56:17.961Z,62.96
2019-03-06T10:58:25.288Z,61.29
2019-03-06T11:00:35.083Z,60.37
2019-03-06T11:02:42.389Z,60.70
2019-03-06T11:04:54.144Z,61.75
2019-03-06T11:07:01.677Z,62.04
2019-03-06T11:09:11.322Z,60.13
2019-03-06T11:11:19.505Z,59.49
2019-03-06T11:13:26.474Z,60.17
2019-03-06T11:15:34.866Z,59.11
2019-03-06T11:17:42.385Z,59.54
2019-03-06T11:19:49.686Z,58.73
2019-03-06T11:21:56.776Z,59.47
2019-03-06T11:24:04.056Z,59.88
2019-03-06T11:26:11.235Z,61.97
2019-03-06T11:28:18.424Z,59.28
2019-03-06T11:30:41.712Z,59.98
2019-03-06T11:32:54.484Z,60.65
2019-03-06T11:34:59.169Z,59.50
2019-03-06T11:37:07.172Z,60.42
2019-03-06T11:39:14.895Z,61.16
2019-03-06T11:41:22.236Z,59.69
2019-03-06T11:43:29.572Z,60.55
2019-03-06T11:45:38.734Z,60.07
2019-03-06T11:47:45.883Z,59.29
2019-03-06T11:49:57.944Z,58.32
2019-03-06T11:52:06.548Z,56.89
2019-03-06T11:54:14.672Z,59.68
2019-03-06T11:56:24.181Z,58.03
2019-03-06T11:58:32.534Z,58.38
2019-03-06T12:00:46.435Z,58.71
2019-03-06T12:02:54.436Z,60.43
2019-03-06T12:05:02.196Z,59.49
2019-03-06T12:07:11.009Z,57.86
2019-03-06T12:09:29.957Z,58.08
2019-03-06T12:11:36.866Z,59.66
2019-03-06T12:13:45.522Z,58.91
2019-03-06T12:15:53.655Z,59.72
2019-03-06T12:18:00.997Z,59.28
2019-03-06T12:20:10.285Z,57.13
2019-03-06T12:22:17.563Z,57.29
2019-03-06T12:24:25.212Z,56.65
2019-03-06T12:26:32.855Z,56.09
2019-03-06T12:28:40.076Z,56.11
2019-03-06T12:30:47.193Z,56.47
2019-03-06T12:32:54.475Z,56.01
2019-03-06T12:35:02.356Z,55.84
2019-03-06T12:37:09.556Z,55.43
2019-03-06T12:39:19.093Z,55.44
2019-03-06T12:41:27.998Z,55.96
2019-03-06T12:43:35.102Z,57.25
2019-03-06T12:45:44.096Z,58.24
2019-03-06T12:47:58.365Z,59.68
2019-03-06T12:50:08.629Z,57.66
2019-03-06T12:52:15.863Z,57.00
2019-03-06T12:54:22.723Z,56.39
2019-03-06T12:56:31.645Z,56.52
2019-03-06T12:58:38.976Z,55.68
2019-03-06T13:00:45.975Z,57.21
2019-03-06T13:02:54.500Z,54.63
2019-03-06T13:05:01.243Z,54.12
2019-03-06T13:07:08.905Z,56.15
2019-03-06T13:09:22.037Z,54.68
2019-03-06T13:11:29.577Z,54.95
2019-03-06T13:13:38.406Z,58.07
2019-03-06T13:15:46.375Z,54.87
2019-03-06T13:17:53.854Z,54.84
2019-03-06T13:20:00.883Z,55.36
2019-03-06T13:22:11.374Z,56.41
2019-03-06T13:24:18.618Z,55.57
2019-03-06T13:26:25.432Z,56.09
2019-03-06T13:28:32.218Z,55.88
2019-03-06T13:30:39.418Z,55.97
2019-03-06T13:32:58.165Z,53.70
2019-03-06T13:35:07.856Z,53.62
2019-03-06T13:37:15.005Z,53.65
2019-03-06T13:39:21.886Z,52.32
2019-03-06T13:41:33.586Z,53.92
2019-03-06T13:43:41.094Z,51.40
2019-03-06T13:45:51.406Z,51.39
2019-03-06T13:47:58.658Z,50.83
2019-03-06T13:50:11.644Z,51.39
2019-03-06T13:52:19.498Z,53.05
2019-03-06T13:54:26.583Z,53.82
2019-03-06T13:56:38.475Z,53.81
2019-03-06T13:58:47.126Z,54.25
2019-03-06T14:00:55.032Z,54.87
2019-03-06T14:03:02.316Z,54.17
2019-03-06T14:05:10.357Z,54.48
2019-03-06T14:07:18.670Z,55.47
2019-03-06T14:09:26.749Z,55.13
2019-03-06T14:11:33.916Z,55.31
2019-03-06T14:13:41.550Z,55.94
2019-03-06T14:15:54.003Z,56.51
2019-03-06T14:17:59.392Z,56.53
2019-03-06T14:20:14.423Z,55.72
2019-03-06T14:22:21.691Z,55.91
2019-03-06T14:24:29.377Z,55.24
2019-03-06T14:26:37.079Z,55.03
2019-03-06T14:28:46.872Z,54.29
2019-03-06T14:30:54.680Z,54.46
2019-03-06T14:33:02.015Z,55.79
2019-03-06T14:35:09.671Z,55.93
2019-03-06T14:37:17.105Z,55.91
2019-03-06T14:39:29.065Z,56.40
2019-03-06T14:41:37.048Z,56.23
2019-03-06T14:43:44.428Z,56.76
2019-03-06T14:45:51.441Z,56.63
2019-03-06T14:47:58.609Z,56.27
2019-03-06T14:50:07.225Z,56.74
2019-03-06T14:52:14.640Z,56.38
2019-03-06T14:54:21.640Z,56.21
2019-03-06T14:56:28.856Z,56.10
2019-03-06T14:58:36.335Z,56.22
2019-03-06T15:00:43.874Z,56.42
2019-03-06T15:02:51.035Z,56.60
2019-03-06T15:04:58.742Z,55.95
2019-03-06T15:07:06.347Z,54.86
2019-03-06T15:09:28.290Z,55.10
2019-03-06T15:11:35.839Z,55.40
2019-03-06T15:13:44.507Z,54.90
2019-03-06T15:15:53.157Z,55.73
2019-03-06T15:18:00.344Z,55.16
2019-03-06T15:20:11.654Z,54.93
2019-03-06T15:22:18.962Z,55.54
2019-03-06T15:24:26.144Z,55.43
2019-03-06T15:26:33.678Z,55.26
2019-03-06T15:28:40.625Z,55.75
2019-03-06T15:30:47.746Z,55.87
2019-03-06T15:32:54.990Z,55.90
2019-03-06T15:35:02.391Z,56.16
2019-03-06T15:37:09.846Z,56.42
2019-03-06T15:39:29.462Z,56.46
2019-03-06T15:41:37.370Z,56.73
2019-03-06T15:43:44.763Z,56.82
2019-03-06T15:45:51.827Z,57.26
2019-03-06T15:47:59.577Z,57.59
2019-03-06T15:50:10.407Z,57.76
2019-03-06T15:52:18.574Z,58.06
2019-03-06T15:54:26.535Z,58.39
2019-03-06T15:56:34.074Z,58.86
2019-03-06T15:58:43.874Z,58.85
2019-03-06T16:00:52.142Z,59.36
2019-03-06T16:03:00.186Z,59.50
2019-03-06T16:05:11.149Z,59.57
2019-03-06T16:07:18.437Z,59.93
2019-03-06T16:09:25.640Z,59.93
2019-03-06T16:11:33.564Z,60.16
2019-03-06T16:13:41.341Z,60.50
2019-03-06T16:15:48.850Z,60.93
2019-03-06T16:17:59.672Z,61.31
2019-03-06T16:20:18.826Z,61.50
2019-03-06T16:22:25.703Z,62.19
2019-03-06T16:24:34.423Z,62.37
2019-03-06T16:26:42.121Z,62.75
2019-03-06T16:28:49.447Z,63.08
2019-03-06T16:30:56.732Z,63.36
2019-03-06T16:33:04.134Z,63.96
2019-03-06T16:35:11.672Z,64.14
2019-03-06T16:37:19.323Z,63.93
2019-03-06T16:39:27.222Z,64.10
2019-03-06T16:41:35.403Z,64.29
2019-03-06T16:43:43.087Z,64.52
2019-03-06T16:45:50.825Z,64.68
2019-03-06T16:47:58.084Z,65.00
2019-03-06T16:50:14.375Z,65.30
2019-03-06T16:52:19.214Z,65.56
2019-03-06T16:54:26.867Z,65.52
2019-03-06T16:56:35.753Z,65.72
2019-03-06T16:58:42.910Z,65.98
2019-03-06T17:00:52.297Z,66.44
2019-03-06T17:03:02.834Z,66.87
2019-03-06T17:05:11.484Z,66.91
2019-03-06T17:07:18.798Z,67.05
2019-03-06T17:09:26.156Z,67.16
2019-03-06T17:11:34.287Z,67.22
2019-03-06T17:13:41.957Z,67.29
2019-03-06T17:15:49.530Z,67.64
2019-03-06T17:17:57.427Z,67.81
2019-03-06T17:20:05.739Z,67.81
2019-03-06T17:22:13.147Z,67.96
2019-03-06T17:24:21.155Z,68.34
2019-03-06T17:26:28.995Z,68.44
2019-03-06T17:28:36.407Z,68.71
2019-03-06T17:30:44.011Z,68.50
2019-03-06T17:33:03.943Z,68.65
2019-03-06T17:35:11.477Z,68.64
2019-03-06T17:37:19.066Z,68.82
2019-03-06T17:39:26.574Z,68.93
2019-03-06T17:41:33.993Z,68.95
2019-03-06T17:43:41.377Z,68.95
2019-03-06T17:45:49.801Z,69.17
2019-03-06T17:47:57.698Z,69.24
2019-03-06T17:50:06.483Z,69.31
2019-03-06T17:52:14.220Z,69.33
2019-03-06T17:54:21.929Z,69.07
2019-03-06T17:56:31.326Z,68.97
2019-03-06T17:58:38.917Z,68.89
2019-03-06T18:00:47.978Z,68.85
2019-03-06T18:02:55.657Z,68.98
2019-03-06T18:05:03.217Z,69.03
2019-03-06T18:07:11.617Z,69.05
2019-03-06T18:09:19.285Z,69.01
2019-03-06T18:11:26.897Z,69.13
2019-03-06T18:13:34.197Z,69.19
2019-03-06T18:15:44.338Z,69.20
2019-03-06T18:17:51.238Z,69.35
2019-03-06T18:20:00.397Z,69.23
2019-03-06T18:22:09.084Z,69.18
2019-03-06T18:24:16.983Z,69.15
2019-03-06T18:26:24.594Z,69.09
2019-03-06T18:28:32.823Z,69.15
2019-03-06T18:30:40.664Z,69.53
2019-03-06T18:32:49.295Z,69.40
2019-03-06T18:34:56.554Z,69.71
2019-03-06T18:37:03.823Z,69.74
2019-03-06T18:39:12.851Z,69.72
2019-03-06T18:41:20.233Z,69.69
2019-03-06T18:43:27.907Z,69.61
2019-03-06T18:45:37.191Z,69.61
2019-03-06T18:47:44.553Z,69.45
2019-03-06T18:49:52.033Z,69.49
2019-03-06T18:51:59.451Z,69.46
2019-03-06T18:54:06.926Z,69.49
2019-03-06T18:56:14.428Z,69.52
2019-03-06T18:58:23.122Z,69.40
2019-03-06T19:00:33.751Z,69.44
2019-03-06T19:02:41.612Z,69.33
2019-03-06T19:04:50.495Z,69.30
2019-03-06T19:06:57.815Z,69.28
2019-03-06T19:09:07.539Z,69.06
2019-03-06T19:11:17.215Z,68.65
2019-03-06T19:13:24.977Z,68.44
2019-03-06T19:15:32.277Z,68.38
2019-03-06T19:17:39.856Z,68.55
2019-03-06T19:19:47.880Z,68.15
2019-03-06T19:21:55.970Z,67.95
2019-03-06T19:24:03.805Z,67.77
2019-03-06T19:26:11.266Z,67.65
2019-03-06T19:28:18.779Z,67.74
2019-03-06T19:30:27.495Z,67.74
2019-03-06T19:32:35.503Z,67.67
2019-03-06T19:34:44.206Z,67.72
2019-03-06T19:36:52.006Z,67.73
2019-03-06T19:38:59.948Z,67.74
2019-03-06T19:41:09.256Z,67.69
2019-03-06T19:43:17.838Z,67.84
2019-03-06T19:45:26.565Z,67.88
2019-03-06T19:47:34.429Z,68.13
2019-03-06T19:49:42.199Z,68.11
2019-03-06T19:51:52.428Z,68.24
2019-03-06T19:54:20.658Z,68.23
2019-03-06T19:56:29.039Z,68.28
2019-03-06T19:58:36.425Z,67.94
2019-03-06T20:00:45.228Z,67.69
2019-03-06T20:02:53.811Z,67.53
2019-03-06T20:05:01.232Z,67.75
2019-03-06T20:07:09.038Z,67.68
2019-03-06T20:09:27.621Z,67.60
2019-03-06T20:11:34.998Z,67.62
2019-03-06T20:13:42.778Z,67.40
2019-03-06T20:15:50.308Z,67.23
2019-03-06T20:17:59.199Z,67.25
2019-03-06T20:20:11.618Z,67.27
2019-03-06T20:22:22.766Z,67.25
2019-03-06T20:24:29.978Z,66.92
2019-03-06T20:26:37.971Z,66.98
2019-03-06T20:28:46.955Z,66.95
2019-03-06T20:30:54.674Z,66.92
2019-03-06T20:33:03.406Z,67.01
2019-03-06T20:35:11.006Z,67.00
2019-03-06T20:37:18.549Z,66.92
2019-03-06T20:39:26.428Z,67.01
2019-03-06T20:41:33.832Z,67.05
2019-03-06T20:44:04.273Z,66.90
2019-03-06T20:46:12.729Z,67.02
2019-03-06T20:48:20.592Z,67.10
2019-03-06T20:50:28.098Z,67.26
2019-03-06T20:52:36.099Z,66.89
2019-03-06T20:54:43.452Z,66.71
2019-03-06T20:56:50.861Z,67.08
2019-03-06T20:58:59.813Z,66.85
2019-03-06T21:01:08.238Z,67.21
2019-03-06T21:03:16.062Z,67.36
2019-03-06T21:05:23.809Z,67.04
2019-03-06T21:07:31.057Z,66.96
2019-03-06T21:09:38.474Z,67.18
2019-03-06T21:11:45.995Z,67.24
2019-03-06T21:13:53.442Z,67.19
2019-03-06T21:16:01.726Z,66.83
2019-03-06T21:18:11.184Z,66.96
2019-03-06T21:20:26.739Z,67.11
2019-03-06T21:22:34.145Z,66.86
2019-03-06T21:24:41.786Z,66.90
2019-03-06T21:26:49.264Z,67.06
2019-03-06T21:28:56.987Z,67.20
2019-03-06T21:31:04.438Z,67.20
2019-03-06T21:33:12.074Z,67.33
2019-03-06T21:35:19.632Z,67.42
2019-03-06T21:37:27.074Z,67.55
2019-03-06T21:39:46.442Z,67.57
2019-03-06T21:42:14.205Z,67.65
2019-03-06T21:44:21.897Z,67.79
2019-03-06T21:46:30.000Z,67.82
2019-03-06T21:48:37.475Z,67.62
2019-03-06T21:50:44.916Z,67.68
2019-03-06T21:52:52.488Z,67.56
2019-03-06T21:55:02.664Z,67.74
2019-03-06T21:57:15.493Z,67.60
2019-03-06T21:59:23.588Z,67.47
2019-03-06T22:01:31.028Z,67.56
2019-03-06T22:03:38.562Z,67.38
2019-03-06T22:05:45.740Z,67.11
2019-03-06T22:07:53.331Z,67.25
2019-03-06T22:10:00.585Z,67.37
2019-03-06T22:12:09.422Z,67.50
2019-03-06T22:14:16.869Z,67.84
2019-03-06T22:16:25.061Z,67.74
2019-03-06T22:18:33.043Z,67.46
2019-03-06T22:20:40.317Z,67.47
2019-03-06T22:22:47.359Z,67.56
2019-03-06T22:24:55.216Z,67.49
2019-03-06T22:27:02.433Z,67.47
2019-03-06T22:29:12.627Z,67.64
2019-03-06T22:31:20.856Z,67.36
2019-03-06T22:33:27.680Z,67.24
2019-03-06T22:35:34.556Z,67.40
2019-03-06T22:37:42.255Z,67.64
2019-03-06T22:39:50.839Z,67.63
2019-03-06T22:41:57.933Z,67.53
2019-03-06T22:44:04.981Z,67.41
2019-03-06T22:46:12.279Z,67.53
2019-03-06T22:48:19.334Z,67.66
2019-03-06T22:50:26.190Z,67.12
2019-03-06T22:52:33.384Z,67.23
2019-03-06T22:54:40.489Z,67.27
2019-03-06T22:56:47.510Z,67.34
2019-03-06T22:58:54.623Z,67.29
2019-03-06T23:01:06.048Z,67.40
2019-03-06T23:03:15.267Z,67.37
2019-03-06T23:05:22.317Z,67.41
2019-03-06T23:07:29.273Z,67.31
2019-03-06T23:09:37.165Z,67.50
2019-03-06T23:11:44.891Z,67.49
2019-03-06T23:13:51.930Z,67.26
2019-03-06T23:15:59.218Z,67.29
2019-03-06T23:18:06.791Z,67.37
2019-03-06T23:20:15.552Z,67.44
2019-03-06T23:22:23.604Z,67.07
2019-03-06T23:24:30.873Z,67.15
2019-03-06T23:26:42.701Z,67.35
2019-03-06T23:28:46.407Z,67.04
2019-03-06T23:30:53.516Z,67.22
2019-03-06T23:33:00.830Z,67.39
